| time (UTC) | temp F | wind direction | speed MPH | gust MPH | rain 1hr in | rain 24hr in | rain mn in | humidity % | barometer mb |
| 20260906074517 | 69 | 136 | 0.0 | 0.0 | 0.00 | 0.62 | 0.62 | 96 | 1011.6 |
| 20260906073007 | 69 | 136 | 0.0 | 0.0 | 0.00 | 0.62 | 0.62 | 96 | 1011.6 |
| 20260906071507 | 69 | 122 | 0.0 | 0.0 | 0.00 | 0.62 | 0.62 | 96 | 1011.8 |
| 20260906070004 | 69 | 122 | 0.0 | 0.0 | 0.00 | 0.62 | 0.62 | 96 | 1011.9 |
| 20260906064506 | 70 | 122 | 0.0 | 0.0 | 0.00 | 0.62 | 0.62 | 96 | 1011.8 |
| 20260906063005 | 70 | 133 | 0.0 | 0.0 | 0.00 | 0.62 | 0.62 | 96 | 1012.0 |
| 20260906061502 | 70 | 133 | 0.0 | 0.0 | 0.00 | 0.62 | 0.62 | 95 | 1012.2 |
| 20260906060003 | 70 | 133 | 0.0 | 0.0 | 0.00 | 0.62 | 0.62 | 95 | 1012.2 |
| 20260906054601 | 70 | 133 | 0.0 | 0.0 | 0.00 | 0.62 | 0.62 | 95 | 1012.5 |
| 20260906053101 | 70 | 133 | 0.0 | 0.0 | 0.00 | 0.62 | 0.62 | 95 | 1012.5 |
| 20260906051604 | 70 | 83 | 0.0 | 0.0 | 0.00 | 0.62 | 0.62 | 95 | 1012.5 |
| 20260906050056 | 70 | 129 | 0.0 | 0.0 | 0.00 | 0.62 | 0.62 | 95 | 1012.9 |
| 20260906044556 | 71 | 129 | 0.0 | 0.0 | 0.00 | 0.62 | 0.62 | 94 | 1012.6 |
| 20260906043055 | 71 | 129 | 0.0 | 0.0 | 0.00 | 0.62 | 0.62 | 94 | 1012.4 |
| 20260906041555 | 71 | 129 | 0.0 | 0.0 | 0.00 | 0.62 | 0.62 | 94 | 1012.4 |
| 20260906040028 | 71 | 97 | 0.0 | 0.0 | 0.00 | 0.62 | 0.62 | 93 | 1012.5 |
| 20260906034527 | 71 | 137 | 0.0 | 0.0 | 0.00 | 0.62 | 0.62 | 94 | 1012.5 |
| 20260906033036 | 71 | 90 | 0.0 | 0.0 | 0.00 | 0.62 | 0.62 | 94 | 1012.6 |
| 20260906031523 | 71 | 132 | 0.0 | 0.0 | 0.00 | 0.62 | 0.62 | 94 | 1012.8 |
| 20260906030019 | 71 | 67 | 0.0 | 0.0 | 0.00 | 0.62 | 0.62 | 94 | 1013.0 |
| 20260906024519 | 72 | 105 | 0.0 | 0.0 | 0.00 | 0.62 | 0.62 | 93 | 1012.7 |
| 20260906023015 | 72 | 104 | 0.0 | 0.0 | 0.00 | 0.62 | 0.62 | 93 | 1012.8 |
| 20260906021516 | 72 | 104 | 0.0 | 0.0 | 0.00 | 0.62 | 0.62 | 93 | 1012.7 |
| 20260906020015 | 72 | 105 | 0.0 | 0.0 | 0.00 | 0.62 | 0.62 | 92 | 1012.9 |
| 20260906014515 | 72 | 105 | 0.0 | 0.0 | 0.00 | 0.62 | 0.62 | 93 | 1012.5 |
| 20260906013045 | 73 | 63 | 0.0 | 0.0 | 0.00 | 0.62 | 0.62 | 92 | 1012.3 |
| 20260906011544 | 73 | 59 | 0.0 | 0.0 | 0.00 | 0.62 | 0.62 | 92 | 1012.4 |
| 20260906010041 | 74 | 101 | 0.0 | 0.0 | 0.00 | 0.62 | 0.62 | 91 | 1012.2 |
| 20260906004540 | 74 | 61 | 0.0 | 0.0 | 0.00 | 0.62 | 0.62 | 90 | 1011.9 |
| 20260906003040 | 74 | 61 | 0.0 | 0.0 | 0.00 | 0.62 | 0.62 | 90 | 1011.7 |
| 20260906001538 | 75 | 94 | 0.0 | 0.0 | 0.00 | 0.62 | 0.62 | 89 | 1011.7 |
| 20260906000037 | 76 | 187 | 0.0 | 0.0 | 0.00 | 0.62 | 0.62 | 87 | 1011.6 |
| 20260905234537 | 77 | 187 | 0.0 | 0.0 | 0.00 | 0.62 | 0.62 | 85 | 1011.6 |
| 20260905233042 | 79 | 187 | 0.0 | 0.0 | 0.00 | 0.62 | 0.62 | 81 | 1011.5 |
| 20260905231534 | 81 | 187 | 0.0 | 0.0 | 0.00 | 0.62 | 0.62 | 73 | 1011.4 |
| 20260905230004 | 83 | 187 | 0.0 | 0.0 | 0.00 | 0.62 | 0.62 | 70 | 1011.7 |
| 20260905224504 | 83 | 226 | 0.0 | 0.0 | 0.00 | 0.62 | 0.62 | 71 | 1011.8 |
| 20260905223059 | 84 | 211 | 0.0 | 0.0 | 0.00 | 0.62 | 0.62 | 69 | 1011.8 |
| 20260905221604 | 83 | 169 | 0.0 | 0.0 | 0.00 | 0.62 | 0.62 | 67 | 1011.9 |
| 20260905220106 | 83 | 146 | 0.0 | 0.0 | 0.00 | 0.62 | 0.62 | 69 | 1012.0 |
| 20260905214555 | 84 | 129 | 0.0 | 0.0 | 0.00 | 0.62 | 0.62 | 70 | 1011.9 |
| 20260905213025 | 83 | 154 | 0.0 | 0.0 | 0.00 | 0.62 | 0.62 | 72 | 1011.9 |
| 20260905211524 | 84 | 176 | 0.0 | 3.0 | 0.00 | 0.62 | 0.62 | 70 | 1011.8 |
| 20260905210022 | 84 | 158 | 0.0 | 0.0 | 0.00 | 0.62 | 0.62 | 68 | 1011.8 |
| 20260905204522 | 83 | 153 | 0.0 | 3.0 | 0.00 | 0.62 | 0.62 | 69 | 1011.8 |
| 20260905203022 | 83 | 191 | 0.0 | 0.0 | 0.00 | 0.62 | 0.62 | 68 | 1011.8 |
| 20260905201521 | 82 | 72 | 0.0 | 0.0 | 0.00 | 0.62 | 0.62 | 71 | 1011.9 |
| 20260905200057 | 82 | 205 | 0.0 | 0.0 | 0.00 | 0.62 | 0.62 | 73 | 1011.8 |
| 20260905194548 | 81 | 239 | 0.0 | 0.0 | 0.00 | 0.62 | 0.62 | 73 | 1012.2 |
| 20260905193042 | 81 | 181 | 0.0 | 0.0 | 0.00 | 0.62 | 0.62 | 75 | 1012.5 |
| 20260905191541 | 80 | 60 | 0.0 | 0.0 | 0.00 | 0.62 | 0.62 | 75 | 1012.8 |
| 20260905190039 | 80 | 43 | 0.0 | 0.0 | 0.00 | 0.62 | 0.62 | 75 | 1012.9 |
| 20260905184540 | 79 | 295 | 0.0 | 0.0 | 0.00 | 0.62 | 0.62 | 81 | 1013.2 |
| 20260905183037 | 77 | 162 | 0.0 | 0.0 | 0.00 | 0.62 | 0.62 | 83 | 1013.5 |
| 20260905181552 | 76 | 138 | 0.0 | 0.0 | 0.00 | 0.62 | 0.62 | 87 | 1013.9 |
| 20260905180036 | 74 | 121 | 0.0 | 0.0 | 0.00 | 0.62 | 0.62 | 91 | 1014.2 |
| 20260905174547 | 72 | 117 | 0.0 | 0.0 | 0.00 | 0.62 | 0.62 | 94 | 1014.7 |
| 20260905173005 | 71 | 51 | 0.0 | 0.0 | 0.00 | 0.62 | 0.62 | 96 | 1015.3 |
| 20260905171504 | 70 | 41 | 0.0 | 0.0 | 0.01 | 0.62 | 0.62 | 96 | 1015.3 |
| 20260905170002 | 70 | 75 | 0.0 | 0.0 | 0.41 | 0.62 | 0.62 | 96 | 1015.2 |
| 20260905164501 | 70 | 13 | 0.0 | 0.0 | 0.62 | 0.62 | 0.62 | 95 | 1014.6 |
| 20260905163100 | 71 | 61 | 0.0 | 0.0 | 0.62 | 0.62 | 0.62 | 94 | 1015.3 |
| 20260905161600 | 71 | 92 | 0.0 | 1.0 | 0.61 | 0.61 | 0.61 | 93 | 1015.4 |
| 20260905160048 | 75 | 281 | 0.0 | 24.0 | 0.21 | 0.21 | 0.21 | 84 | 1016.4 |
| 20260905154524 | 83 | 252 | 0.0 | 0.0 | 0.00 | 0.00 | 0.00 | 72 | 1014.4 |
| 20260905153122 | 84 | 251 | 0.0 | 0.0 | 0.00 | 0.00 | 0.00 | 70 | 1014.6 |
| 20260905151557 | 85 | 257 | 0.0 | 0.0 | 0.00 | 0.00 | 0.00 | 70 | 1014.3 |
| 20260905150049 | 84 | 243 | 0.0 | 0.0 | 0.00 | 0.00 | 0.00 | 71 | 1014.1 |
| 20260905144546 | 84 | 143 | 0.0 | 0.0 | 0.00 | 0.00 | 0.00 | 73 | 1014.0 |
| 20260905143044 | 83 | 190 | 0.0 | 0.0 | 0.00 | 0.00 | 0.00 | 75 | 1013.9 |
| 20260905141542 | 81 | 326 | 0.0 | 0.0 | 0.00 | 0.00 | 0.00 | 79 | 1014.1 |
| 20260905140038 | 79 | 258 | 0.0 | 0.0 | 0.00 | 0.00 | 0.00 | 82 | 1014.3 |
| 20260905134503 | 78 | 290 | 0.0 | 0.0 | 0.00 | 0.00 | 0.00 | 85 | 1014.3 |
| 20260905133001 | 77 | 289 | 0.0 | 0.0 | 0.00 | 0.00 | 0.00 | 87 | 1014.3 |
| 20260905131604 | 77 | 286 | 0.0 | 0.0 | 0.00 | 0.00 | 0.00 | 86 | 1014.4 |
| 20260905130058 | 74 | 286 | 0.0 | 0.0 | 0.00 | 0.00 | 0.00 | 91 | 1014.7 |
| 20260905124557 | 75 | 285 | 0.0 | 0.0 | 0.00 | 0.00 | 0.00 | 87 | 1014.7 |
| 20260905123053 | 74 | 139 | 0.0 | 0.0 | 0.00 | 0.00 | 0.00 | 89 | 1014.6 |
| 20260905121518 | 73 | 139 | 0.0 | 0.0 | 0.00 | 0.00 | 0.00 | 94 | 1014.5 |
| 20260905120014 | 70 | 139 | 0.0 | 0.0 | 0.00 | 0.00 | 0.00 | 96 | 1014.3 |
| 20260905114509 | 69 | 139 | 0.0 | 0.0 | 0.00 | 0.00 | 0.00 | 96 | 1014.2 |
| 20260905113009 | 68 | 139 | 0.0 | 0.0 | 0.00 | 0.00 | 0.00 | 96 | 1014.2 |
| 20260905111508 | 68 | 139 | 0.0 | 0.0 | 0.00 | 0.00 | 0.00 | 96 | 1014.0 |
| 20260905110007 | 69 | 139 | 0.0 | 0.0 | 0.00 | 0.00 | 0.00 | 96 | 1013.8 |
| 20260905104535 | 68 | 139 | 0.0 | 0.0 | 0.00 | 0.00 | 0.00 | 96 | 1013.4 |
| 20260905103041 | 69 | 139 | 0.0 | 0.0 | 0.00 | 0.00 | 0.00 | 96 | 1013.6 |
| 20260905101529 | 68 | 139 | 0.0 | 0.0 | 0.00 | 0.00 | 0.00 | 96 | 1013.5 |
| 20260905100029 | 69 | 139 | 0.0 | 0.0 | 0.00 | 0.00 | 0.00 | 96 | 1013.5 |
| 20260905094534 | 69 | 139 | 0.0 | 0.0 | 0.00 | 0.00 | 0.00 | 96 | 1013.3 |
| 20260905093026 | 69 | 139 | 0.0 | 0.0 | 0.00 | 0.00 | 0.00 | 95 | 1013.2 |
| 20260905091556 | 69 | 106 | 0.0 | 0.0 | 0.00 | 0.00 | 0.00 | 96 | 1013.3 |
| 20260905090024 | 69 | 106 | 0.0 | 0.0 | 0.00 | 0.00 | 0.00 | 96 | 1013.1 |
| 20260905084522 | 69 | 106 | 0.0 | 0.0 | 0.00 | 0.00 | 0.00 | 96 | 1013.2 |
| 20260905083022 | 69 | 105 | 0.0 | 0.0 | 0.00 | 0.00 | 0.00 | 96 | 1013.3 |
| 20260905081517 | 69 | 109 | 0.0 | 0.0 | 0.00 | 0.00 | 0.00 | 95 | 1013.2 |
| 20260905080016 | 70 | 109 | 0.0 | 0.0 | 0.00 | 0.00 | 0.00 | 95 | 1013.4 |